To NAV CANADA Home Page Login to a new session Search on AWWS site Disclaimer Vers la page française équivalente Tips FAQ What's new on the site To the Forecasts and Observations / NOTAM section To "File a Flight Plan" website Publications and other links Update of the User's profile FIC Telephone Numbers My Weather Data Folder Route Weather Data Regional Weather Data Local Weather Data To the Forecasts and Observations / NOTAM section
Request Generated 08/19/2022 at 01:43:12 UTC . Weather information available at that time is displayed.

METAR/TAF

PICKLE LAKE/ON    (show WxCam)

METAR CYPL 190100Z AUTO 29003KT 9SM BKN150 OVC170 20/18 A2983 RMK SLP109 DENSITY ALT 2300FT=
METAR CYPL 190000Z AUTO 28005KT 9SM BKN130 OVC150 21/17 A2983 RMK SLP106 DENSITY ALT 2400FT=
METAR CYPL 182300Z AUTO 10006KT 360V110 9SM 21/16 A2982 RMK CLD MISG SLP103 DENSITY ALT 2400FT=

TAF CYPL 190140Z 1902/1914 30005KT P6SM BKN150
RMK FCST BASED ON AUTO OBS. NXT FCST BY 190800Z
Your time UTC time
Weather data provided by Environment Canada and NAV CANADA